createdAt,value
2018-07-17T00:00:01.465Z,6.4
2018-07-17T00:00:13.923Z,6.4
2018-07-17T00:00:26.534Z,6.4
2018-07-17T00:00:38.991Z,6.4
2018-07-17T00:00:51.450Z,6.4
2018-07-17T00:01:03.866Z,6.4
2018-07-17T00:01:16.327Z,6.4
2018-07-17T00:01:28.770Z,6.4
2018-07-17T00:01:41.195Z,6.4
2018-07-17T00:01:53.857Z,6.4
2018-07-17T00:02:06.355Z,6.4
2018-07-17T00:02:18.787Z,6.4
2018-07-17T00:02:31.374Z,6.4
2018-07-17T00:02:43.786Z,6.4
2018-07-17T00:02:56.215Z,6.4
2018-07-17T00:03:08.695Z,6.4
2018-07-17T00:03:21.100Z,6.4
2018-07-17T00:03:33.540Z,6.4
2018-07-17T00:03:45.975Z,6.4
2018-07-17T00:03:58.398Z,6.4
2018-07-17T00:04:10.794Z,6.4
2018-07-17T00:04:23.216Z,6.4
2018-07-17T00:04:35.595Z,6.4
2018-07-17T00:04:48.001Z,6.4
2018-07-17T00:05:00.627Z,6.4
2018-07-17T00:05:13.043Z,6.4
2018-07-17T00:05:25.516Z,6.4
2018-07-17T00:05:37.930Z,6.35
2018-07-17T00:05:50.328Z,6.35
2018-07-17T00:06:02.752Z,6.35
2018-07-17T00:06:15.159Z,6.35
2018-07-17T00:06:27.563Z,6.35
2018-07-17T00:06:39.975Z,6.35
2018-07-17T00:06:52.393Z,6.35
2018-07-17T00:07:04.811Z,6.35
2018-07-17T00:07:17.225Z,6.35
2018-07-17T00:07:29.749Z,6.35
2018-07-17T00:07:42.154Z,6.35
2018-07-17T00:07:54.544Z,6.35
2018-07-17T00:08:06.951Z,6.35
2018-07-17T00:08:19.516Z,6.35
2018-07-17T00:08:31.956Z,6.35
2018-07-17T00:08:44.377Z,6.35
2018-07-17T00:08:56.794Z,6.35
2018-07-17T00:09:09.196Z,6.35
2018-07-17T00:09:21.600Z,6.35
2018-07-17T00:09:34.224Z,6.35
2018-07-17T00:09:47.745Z,6.35
2018-07-17T00:10:00.164Z,6.35
2018-07-17T00:10:12.584Z,6.35
2018-07-17T00:10:24.978Z,6.35
2018-07-17T00:10:37.403Z,6.35
2018-07-17T00:10:49.856Z,6.35
2018-07-17T00:11:02.283Z,6.35
2018-07-17T00:11:14.850Z,6.35
2018-07-17T00:11:27.312Z,6.35
2018-07-17T00:11:39.708Z,6.35
2018-07-17T00:11:52.130Z,6.35
2018-07-17T00:12:04.613Z,6.35
2018-07-17T00:12:17.091Z,6.35
2018-07-17T00:12:29.568Z,6.35
2018-07-17T00:12:42.373Z,6.35
2018-07-17T00:12:55.970Z,6.35
2018-07-17T00:13:08.516Z,6.35
2018-07-17T00:13:20.942Z,6.35
2018-07-17T00:13:33.406Z,6.35
2018-07-17T00:13:45.836Z,6.35
2018-07-17T00:13:58.256Z,6.35
2018-07-17T00:14:10.657Z,6.35
2018-07-17T00:14:23.049Z,6.35
2018-07-17T00:14:35.449Z,6.35
2018-07-17T00:14:47.855Z,6.35
2018-07-17T00:15:00.259Z,6.35
2018-07-17T00:15:12.731Z,6.35
2018-07-17T00:15:25.141Z,6.35
2018-07-17T00:15:37.579Z,6.95
2018-07-17T00:15:49.968Z,6.95
2018-07-17T00:16:02.409Z,6.95
2018-07-17T00:16:14.882Z,6.95
2018-07-17T00:16:27.360Z,6.95
2018-07-17T00:16:39.779Z,6.95
2018-07-17T00:16:52.186Z,6.95
2018-07-17T00:17:04.639Z,6.95
2018-07-17T00:17:17.044Z,6.95
2018-07-17T00:17:29.447Z,6.95
2018-07-17T00:17:41.855Z,6.95
2018-07-17T00:17:54.318Z,6.95
2018-07-17T00:18:06.743Z,6.95
2018-07-17T00:18:19.143Z,6.95
2018-07-17T00:18:31.548Z,6.95
2018-07-17T00:18:43.962Z,6.95
2018-07-17T00:18:56.350Z,6.95
2018-07-17T00:19:08.750Z,6.95
2018-07-17T00:19:21.179Z,6.95
2018-07-17T00:19:33.576Z,6.95
2018-07-17T00:19:46.000Z,6.95
2018-07-17T00:19:58.405Z,6.95
2018-07-17T00:20:10.814Z,6.95
2018-07-17T00:20:23.227Z,6.95
2018-07-17T00:20:35.620Z,6.95
2018-07-17T00:20:48.114Z,6.95
2018-07-17T00:21:00.524Z,6.95
2018-07-17T00:21:12.993Z,6.95
2018-07-17T00:21:25.446Z,6.95
2018-07-17T00:21:37.868Z,6.95
2018-07-17T00:21:50.292Z,6.95
2018-07-17T00:22:02.709Z,6.95
2018-07-17T00:22:15.105Z,6.95
2018-07-17T00:22:27.513Z,6.95
2018-07-17T00:22:39.920Z,6.95
2018-07-17T00:22:52.328Z,6.95
2018-07-17T00:23:04.734Z,6.95
2018-07-17T00:23:17.188Z,6.95
2018-07-17T00:23:29.588Z,6.95
2018-07-17T00:23:42.069Z,6.95
2018-07-17T00:23:54.494Z,6.95
2018-07-17T00:24:06.913Z,6.95
2018-07-17T00:24:19.317Z,6.95
2018-07-17T00:24:31.709Z,6.95
2018-07-17T00:24:44.109Z,6.95
2018-07-17T00:24:56.503Z,6.95
2018-07-17T00:25:08.970Z,6.95
2018-07-17T00:25:21.393Z,6.95
2018-07-17T00:25:33.814Z,6.95
2018-07-17T00:25:46.397Z,8.35
2018-07-17T00:25:58.805Z,8.35
2018-07-17T00:26:11.205Z,8.35
2018-07-17T00:26:23.608Z,8.35
2018-07-17T00:26:36.029Z,8.35
2018-07-17T00:26:48.455Z,8.35
2018-07-17T00:27:00.874Z,8.35
2018-07-17T00:27:13.282Z,8.35
2018-07-17T00:27:25.680Z,8.35
2018-07-17T00:27:38.096Z,8.35
2018-07-17T00:27:50.476Z,8.35
2018-07-17T00:28:02.877Z,8.35
2018-07-17T00:28:15.284Z,8.35
2018-07-17T00:28:27.705Z,8.35
2018-07-17T00:28:40.116Z,8.35
2018-07-17T00:28:52.533Z,8.35
2018-07-17T00:29:04.944Z,8.35
2018-07-17T00:29:17.357Z,8.35
2018-07-17T00:29:29.756Z,8.35
2018-07-17T00:29:42.303Z,8.35
2018-07-17T00:29:54.721Z,8.35
2018-07-17T00:30:07.137Z,8.35
2018-07-17T00:30:19.532Z,8.35
2018-07-17T00:30:31.930Z,8.35
2018-07-17T00:30:44.407Z,8.35
2018-07-17T00:30:56.840Z,8.35
2018-07-17T00:31:09.276Z,8.35
2018-07-17T00:31:21.839Z,8.35
2018-07-17T00:31:34.225Z,8.35
2018-07-17T00:31:46.630Z,8.35
2018-07-17T00:31:59.027Z,8.35
2018-07-17T00:32:11.448Z,8.35
2018-07-17T00:32:23.845Z,8.35
2018-07-17T00:32:36.256Z,8.35
2018-07-17T00:32:48.661Z,8.35
2018-07-17T00:33:01.065Z,8.35
2018-07-17T00:33:13.483Z,8.35
2018-07-17T00:33:25.920Z,8.35
2018-07-17T00:33:38.314Z,8.35
2018-07-17T00:33:50.709Z,8.35
2018-07-17T00:34:03.233Z,8.35
2018-07-17T00:34:15.638Z,8.35
2018-07-17T00:34:28.039Z,8.35
2018-07-17T00:34:40.448Z,8.35
2018-07-17T00:34:52.880Z,8.35
2018-07-17T00:35:05.328Z,8.35
2018-07-17T00:35:17.727Z,8.35
2018-07-17T00:35:30.118Z,8.35
2018-07-17T00:35:42.522Z,9.93
2018-07-17T00:35:54.949Z,9.93
2018-07-17T00:36:07.415Z,9.93
2018-07-17T00:36:19.839Z,9.93
2018-07-17T00:36:32.263Z,9.93
2018-07-17T00:36:44.653Z,9.93
2018-07-17T00:36:57.104Z,9.93
2018-07-17T00:37:09.507Z,9.93
2018-07-17T00:37:21.925Z,9.93
2018-07-17T00:37:34.317Z,9.93
2018-07-17T00:37:46.801Z,9.93
2018-07-17T00:37:59.242Z,9.93
2018-07-17T00:38:11.645Z,9.93
2018-07-17T00:38:24.040Z,9.93
2018-07-17T00:38:36.451Z,9.93
2018-07-17T00:38:48.837Z,9.93
2018-07-17T00:39:01.244Z,9.93
2018-07-17T00:39:13.724Z,9.93
2018-07-17T00:39:26.108Z,9.93
2018-07-17T00:39:38.536Z,9.93
2018-07-17T00:39:50.925Z,9.93
2018-07-17T00:40:03.334Z,9.93
2018-07-17T00:40:15.755Z,9.93
2018-07-17T00:40:28.216Z,9.93
2018-07-17T00:40:40.607Z,9.93
2018-07-17T00:40:53.010Z,9.93
2018-07-17T00:41:05.419Z,9.93
2018-07-17T00:41:17.836Z,9.93
2018-07-17T00:41:30.263Z,9.93
2018-07-17T00:41:42.694Z,9.93
2018-07-17T00:41:55.115Z,9.93
2018-07-17T00:42:07.528Z,9.93
2018-07-17T00:42:19.937Z,9.93
2018-07-17T00:42:32.365Z,9.93
2018-07-17T00:42:44.774Z,9.93
2018-07-17T00:42:57.197Z,9.93
2018-07-17T00:43:09.609Z,9.93
2018-07-17T00:43:22.026Z,9.93
2018-07-17T00:43:34.442Z,9.93
2018-07-17T00:43:46.853Z,9.93
2018-07-17T00:43:59.333Z,9.93
2018-07-17T00:44:11.837Z,9.93
2018-07-17T00:44:24.232Z,9.93
2018-07-17T00:44:36.640Z,9.93
2018-07-17T00:44:49.053Z,9.93
2018-07-17T00:45:01.461Z,9.93
2018-07-17T00:45:13.882Z,9.93
2018-07-17T00:45:26.295Z,9.93
2018-07-17T00:45:38.734Z,9.5
2018-07-17T00:45:51.131Z,9.5
2018-07-17T00:46:03.553Z,9.5
2018-07-17T00:46:15.948Z,9.5
2018-07-17T00:46:28.368Z,9.5
2018-07-17T00:46:40.770Z,9.5
2018-07-17T00:46:53.196Z,9.5
2018-07-17T00:47:05.615Z,9.5
2018-07-17T00:47:18.033Z,9.5
2018-07-17T00:47:30.438Z,9.5
2018-07-17T00:47:42.835Z,9.5
2018-07-17T00:47:55.232Z,9.5
2018-07-17T00:48:07.840Z,9.5
2018-07-17T00:48:20.265Z,9.5
2018-07-17T00:48:32.681Z,9.5
2018-07-17T00:48:45.091Z,9.5
2018-07-17T00:48:57.583Z,9.5
2018-07-17T00:49:09.982Z,9.5
2018-07-17T00:49:22.381Z,9.5
2018-07-17T00:49:34.863Z,9.5
2018-07-17T00:49:47.281Z,9.5
2018-07-17T00:49:59.685Z,9.5
2018-07-17T00:50:12.115Z,9.5
2018-07-17T00:50:24.502Z,9.5
2018-07-17T00:50:36.900Z,9.5
2018-07-17T00:50:49.308Z,9.5
2018-07-17T00:51:01.719Z,9.5
2018-07-17T00:51:14.194Z,9.5
2018-07-17T00:51:26.584Z,9.5
2018-07-17T00:51:38.990Z,9.5
2018-07-17T00:51:51.415Z,9.5
2018-07-17T00:52:03.824Z,9.5
2018-07-17T00:52:16.206Z,9.5
2018-07-17T00:52:28.634Z,9.5
2018-07-17T00:52:41.055Z,9.5
2018-07-17T00:52:53.658Z,9.5
2018-07-17T00:53:06.090Z,9.5
2018-07-17T00:53:18.499Z,9.5
2018-07-17T00:53:30.916Z,9.5
2018-07-17T00:53:43.455Z,9.5
2018-07-17T00:53:55.951Z,9.5
2018-07-17T00:54:08.375Z,9.5
2018-07-17T00:54:20.793Z,9.5
2018-07-17T00:54:33.192Z,9.5
2018-07-17T00:54:45.593Z,9.5
2018-07-17T00:54:58.076Z,9.5
2018-07-17T00:55:10.834Z,9.5
2018-07-17T00:55:23.244Z,9.5
2018-07-17T00:55:35.853Z,9.5
2018-07-17T00:55:49.139Z,7.3
2018-07-17T00:56:01.544Z,7.3
2018-07-17T00:56:13.939Z,7.3
2018-07-17T00:56:26.324Z,7.3
2018-07-17T00:56:38.739Z,7.3
2018-07-17T00:56:51.133Z,7.3
2018-07-17T00:57:03.541Z,7.3
2018-07-17T00:57:15.943Z,7.3
2018-07-17T00:57:28.380Z,7.3
2018-07-17T00:57:40.840Z,7.3
2018-07-17T00:57:53.299Z,7.3
2018-07-17T00:58:05.723Z,7.3
2018-07-17T00:58:18.156Z,7.3
2018-07-17T00:58:30.552Z,7.3
2018-07-17T00:58:42.987Z,7.3
2018-07-17T00:58:55.393Z,7.3
2018-07-17T00:59:07.792Z,7.3
2018-07-17T00:59:20.206Z,7.3
2018-07-17T00:59:32.632Z,7.3
2018-07-17T00:59:45.069Z,7.3
2018-07-17T00:59:57.481Z,7.3
2018-07-17T01:00:09.930Z,7.3
2018-07-17T01:00:22.529Z,7.3
2018-07-17T01:00:34.953Z,7.3
2018-07-17T01:00:47.370Z,7.3
2018-07-17T01:01:00.019Z,7.3
2018-07-17T01:01:13.777Z,7.3
2018-07-17T01:01:26.224Z,7.3
2018-07-17T01:01:38.639Z,7.3
2018-07-17T01:01:51.126Z,7.3
2018-07-17T01:02:03.710Z,7.3
2018-07-17T01:02:16.134Z,7.3
2018-07-17T01:02:28.594Z,7.3
2018-07-17T01:02:41.010Z,7.3
2018-07-17T01:02:53.430Z,7.3
2018-07-17T01:03:05.835Z,7.3
2018-07-17T01:03:18.272Z,7.3
2018-07-17T01:03:30.673Z,7.3
2018-07-17T01:03:43.214Z,7.3
2018-07-17T01:03:55.640Z,7.3
2018-07-17T01:04:08.110Z,7.3
2018-07-17T01:04:20.535Z,7.3
2018-07-17T01:04:32.964Z,7.3
2018-07-17T01:04:45.416Z,7.3
2018-07-17T01:04:58.055Z,7.3
2018-07-17T01:05:10.453Z,7.3
2018-07-17T01:05:22.856Z,7.3
2018-07-17T01:05:35.264Z,7.3
2018-07-17T01:05:47.690Z,14.63
2018-07-17T01:06:00.116Z,14.63
2018-07-17T01:06:12.581Z,14.63
2018-07-17T01:06:25.060Z,14.63
2018-07-17T01:06:37.472Z,14.63
2018-07-17T01:06:49.866Z,14.63
2018-07-17T01:07:02.641Z,14.63
2018-07-17T01:07:15.926Z,14.63
2018-07-17T01:07:28.756Z,14.63
2018-07-17T01:07:41.150Z,14.63
2018-07-17T01:07:53.562Z,14.63
2018-07-17T01:08:05.977Z,14.63
2018-07-17T01:08:18.378Z,14.63
2018-07-17T01:08:30.804Z,14.63
2018-07-17T01:08:43.215Z,14.63
2018-07-17T01:08:55.640Z,14.63
2018-07-17T01:09:08.042Z,14.63
2018-07-17T01:09:20.444Z,14.63
2018-07-17T01:09:32.873Z,14.63
2018-07-17T01:09:45.324Z,14.63
2018-07-17T01:09:57.746Z,14.63
2018-07-17T01:10:10.152Z,14.63
2018-07-17T01:10:22.561Z,14.63
2018-07-17T01:10:34.972Z,14.63
2018-07-17T01:10:47.369Z,14.63
2018-07-17T01:10:59.783Z,14.63
2018-07-17T01:11:12.189Z,14.63
2018-07-17T01:11:24.610Z,14.63
2018-07-17T01:11:37.057Z,14.63
2018-07-17T01:11:49.717Z,14.63
2018-07-17T01:12:02.127Z,14.63
2018-07-17T01:12:14.609Z,14.63
2018-07-17T01:12:26.995Z,14.63
2018-07-17T01:12:39.474Z,14.63
2018-07-17T01:12:51.874Z,14.63
2018-07-17T01:13:04.548Z,14.63
2018-07-17T01:13:16.962Z,14.63
2018-07-17T01:13:29.370Z,14.63
2018-07-17T01:13:41.774Z,14.63
2018-07-17T01:13:54.188Z,14.63
2018-07-17T01:14:06.579Z,14.63
2018-07-17T01:14:18.977Z,14.63
2018-07-17T01:14:31.378Z,14.63
2018-07-17T01:14:43.789Z,14.63
2018-07-17T01:14:56.203Z,14.63
2018-07-17T01:15:08.611Z,14.63
2018-07-17T01:15:21.073Z,14.63
2018-07-17T01:15:33.472Z,14.63
2018-07-17T01:15:45.887Z,7.65
2018-07-17T01:15:58.309Z,7.65
2018-07-17T01:16:10.728Z,7.65
2018-07-17T01:16:23.119Z,7.65
2018-07-17T01:16:35.517Z,7.65
2018-07-17T01:16:47.929Z,7.65
2018-07-17T01:17:00.332Z,7.65
2018-07-17T01:17:12.731Z,7.65
2018-07-17T01:17:25.134Z,7.65
2018-07-17T01:17:37.558Z,7.65
2018-07-17T01:17:50.151Z,7.65
2018-07-17T01:18:02.573Z,7.65
2018-07-17T01:18:14.976Z,7.65
2018-07-17T01:18:27.393Z,7.65
2018-07-17T01:18:39.792Z,7.65
2018-07-17T01:18:52.192Z,7.65
2018-07-17T01:19:04.604Z,7.65
2018-07-17T01:19:16.996Z,7.65
2018-07-17T01:19:29.553Z,7.65
2018-07-17T01:19:41.958Z,7.65
2018-07-17T01:19:54.351Z,7.65
2018-07-17T01:20:06.752Z,7.65
2018-07-17T01:20:19.147Z,7.65
2018-07-17T01:20:31.536Z,7.65
2018-07-17T01:20:44.025Z,7.65
2018-07-17T01:20:56.410Z,7.65
2018-07-17T01:21:08.817Z,7.65
2018-07-17T01:21:21.210Z,7.65
2018-07-17T01:21:33.633Z,7.65
2018-07-17T01:21:46.039Z,7.65
2018-07-17T01:21:58.432Z,7.65
2018-07-17T01:22:10.831Z,7.65
2018-07-17T01:22:23.216Z,7.65
2018-07-17T01:22:35.662Z,7.65
2018-07-17T01:22:48.055Z,7.65
2018-07-17T01:23:00.453Z,7.65
2018-07-17T01:23:12.948Z,7.65
2018-07-17T01:23:25.382Z,7.65
2018-07-17T01:23:37.805Z,7.65
2018-07-17T01:23:50.203Z,7.65
2018-07-17T01:24:02.608Z,7.65
2018-07-17T01:24:15.028Z,7.65
2018-07-17T01:24:27.419Z,7.65
2018-07-17T01:24:39.845Z,7.65
2018-07-17T01:24:52.269Z,7.65
2018-07-17T01:25:04.734Z,7.65
2018-07-17T01:25:17.140Z,7.65
2018-07-17T01:25:29.524Z,7.65
2018-07-17T01:25:42.088Z,6.95
2018-07-17T01:25:54.674Z,6.95
2018-07-17T01:26:07.087Z,6.95
2018-07-17T01:26:19.488Z,6.95
2018-07-17T01:26:31.891Z,6.95
2018-07-17T01:26:44.301Z,6.95
2018-07-17T01:26:56.720Z,6.95
2018-07-17T01:27:09.119Z,6.95
2018-07-17T01:27:21.525Z,6.95
2018-07-17T01:27:33.955Z,6.95
2018-07-17T01:27:46.367Z,6.95
2018-07-17T01:27:58.775Z,6.95
2018-07-17T01:28:11.232Z,6.95
2018-07-17T01:28:23.685Z,6.95
2018-07-17T01:28:36.084Z,6.95
2018-07-17T01:28:48.480Z,6.95
2018-07-17T01:29:00.862Z,6.95
2018-07-17T01:29:13.250Z,6.95
2018-07-17T01:29:25.654Z,6.95
2018-07-17T01:29:38.058Z,6.95
2018-07-17T01:29:50.622Z,6.95
2018-07-17T01:30:03.015Z,6.95
2018-07-17T01:30:15.423Z,6.95
2018-07-17T01:30:27.838Z,6.95
2018-07-17T01:30:40.245Z,6.95
2018-07-17T01:30:52.645Z,6.95
2018-07-17T01:31:05.048Z,6.95
2018-07-17T01:31:17.619Z,6.95
2018-07-17T01:31:30.067Z,6.95
2018-07-17T01:31:42.497Z,6.95
2018-07-17T01:31:54.984Z,6.95
2018-07-17T01:32:07.386Z,6.95
2018-07-17T01:32:19.786Z,6.95
2018-07-17T01:32:32.191Z,6.95
2018-07-17T01:32:44.594Z,6.95
2018-07-17T01:32:57.032Z,6.95
2018-07-17T01:33:09.446Z,6.95
2018-07-17T01:33:21.844Z,6.95
2018-07-17T01:33:34.252Z,6.95
2018-07-17T01:33:46.630Z,6.95
2018-07-17T01:33:59.100Z,6.95
2018-07-17T01:34:11.505Z,6.95
2018-07-17T01:34:23.904Z,6.95
2018-07-17T01:34:36.302Z,6.95
2018-07-17T01:34:48.687Z,6.95
2018-07-17T01:35:01.105Z,6.95
2018-07-17T01:35:13.518Z,6.95
2018-07-17T01:35:25.930Z,6.95
2018-07-17T01:35:38.344Z,6.95
2018-07-17T01:35:50.736Z,7.7
2018-07-17T01:36:03.165Z,7.7
2018-07-17T01:36:15.606Z,7.7
2018-07-17T01:36:28.009Z,7.7
2018-07-17T01:36:40.409Z,7.7
2018-07-17T01:36:52.792Z,7.7
2018-07-17T01:37:05.175Z,7.7
2018-07-17T01:37:17.577Z,7.7
2018-07-17T01:37:29.989Z,7.7
2018-07-17T01:37:42.384Z,7.7
2018-07-17T01:37:54.801Z,7.7
2018-07-17T01:38:07.200Z,7.7
2018-07-17T01:38:19.753Z,7.7
2018-07-17T01:38:33.124Z,7.7
2018-07-17T01:38:45.979Z,7.7
2018-07-17T01:38:58.414Z,7.7
2018-07-17T01:39:10.822Z,7.7
2018-07-17T01:39:23.239Z,7.7
2018-07-17T01:39:35.653Z,7.7
2018-07-17T01:39:48.046Z,7.7
2018-07-17T01:40:00.458Z,7.7
2018-07-17T01:40:12.885Z,7.7
2018-07-17T01:40:25.293Z,7.7
2018-07-17T01:40:37.690Z,7.7
2018-07-17T01:40:50.087Z,7.7
2018-07-17T01:41:02.472Z,7.7
2018-07-17T01:41:14.909Z,7.7
2018-07-17T01:41:27.334Z,7.7
2018-07-17T01:41:39.759Z,7.7
2018-07-17T01:41:52.164Z,7.7
2018-07-17T01:42:04.579Z,7.7
2018-07-17T01:42:16.999Z,7.7
2018-07-17T01:42:29.404Z,7.7
2018-07-17T01:42:41.816Z,7.7
2018-07-17T01:42:54.341Z,7.7
2018-07-17T01:43:07.591Z,7.7
2018-07-17T01:43:20.295Z,7.7
2018-07-17T01:43:32.716Z,7.7
2018-07-17T01:43:45.108Z,7.7
2018-07-17T01:43:57.564Z,7.7
2018-07-17T01:44:09.962Z,7.7
2018-07-17T01:44:22.376Z,7.7
2018-07-17T01:44:34.804Z,7.7
2018-07-17T01:44:47.207Z,7.7
2018-07-17T01:44:59.693Z,7.7
2018-07-17T01:45:12.137Z,7.7
2018-07-17T01:45:24.549Z,7.7
2018-07-17T01:45:37.015Z,7.7
2018-07-17T01:45:49.492Z,8.77
2018-07-17T01:46:01.952Z,8.77
2018-07-17T01:46:14.464Z,8.77
2018-07-17T01:46:26.883Z,8.77
2018-07-17T01:46:39.330Z,8.77
2018-07-17T01:46:51.749Z,8.77
2018-07-17T01:47:04.163Z,8.77
2018-07-17T01:47:16.560Z,8.77
2018-07-17T01:47:28.971Z,8.77
2018-07-17T01:47:41.371Z,8.77
2018-07-17T01:47:53.766Z,8.77
2018-07-17T01:48:06.220Z,8.77
2018-07-17T01:48:18.648Z,8.77
2018-07-17T01:48:31.055Z,8.77
2018-07-17T01:48:43.454Z,8.77
2018-07-17T01:48:55.981Z,8.77
2018-07-17T01:49:08.394Z,8.77
2018-07-17T01:49:20.796Z,8.77
2018-07-17T01:49:33.190Z,8.77
2018-07-17T01:49:45.616Z,8.77
2018-07-17T01:49:58.093Z,8.77
2018-07-17T01:50:10.500Z,8.77
2018-07-17T01:50:22.913Z,8.77
2018-07-17T01:50:35.323Z,8.77
2018-07-17T01:50:47.720Z,8.77
2018-07-17T01:51:00.119Z,8.77
2018-07-17T01:51:12.773Z,8.77
2018-07-17T01:51:25.200Z,8.77
2018-07-17T01:51:37.617Z,8.77
2018-07-17T01:51:50.040Z,8.77
2018-07-17T01:52:02.511Z,8.77
2018-07-17T01:52:14.907Z,8.77
2018-07-17T01:52:27.318Z,8.77
2018-07-17T01:52:39.720Z,8.77
2018-07-17T01:52:52.111Z,8.77
2018-07-17T01:53:04.519Z,8.77
2018-07-17T01:53:16.911Z,8.77
2018-07-17T01:53:29.346Z,8.77
2018-07-17T01:53:41.744Z,8.77
2018-07-17T01:53:54.170Z,8.77
2018-07-17T01:54:06.560Z,8.77
2018-07-17T01:54:18.953Z,8.77
2018-07-17T01:54:31.397Z,8.77
2018-07-17T01:54:43.820Z,8.77
2018-07-17T01:54:56.225Z,8.77
2018-07-17T01:55:08.865Z,8.77
2018-07-17T01:55:21.280Z,8.77
2018-07-17T01:55:33.672Z,8.77
2018-07-17T01:55:46.079Z,7.62
2018-07-17T01:55:58.459Z,7.62
2018-07-17T01:56:10.865Z,7.62
2018-07-17T01:56:23.268Z,7.62
2018-07-17T01:56:35.672Z,7.62
2018-07-17T01:56:48.114Z,7.62
2018-07-17T01:57:00.585Z,7.62
2018-07-17T01:57:12.995Z,7.62
2018-07-17T01:57:25.392Z,7.62
2018-07-17T01:57:37.842Z,7.62
2018-07-17T01:57:50.229Z,7.62
2018-07-17T01:58:02.680Z,7.62
2018-07-17T01:58:15.072Z,7.62
2018-07-17T01:58:27.492Z,7.62
2018-07-17T01:58:39.943Z,7.62
2018-07-17T01:58:52.334Z,7.62
2018-07-17T01:59:04.740Z,7.62
2018-07-17T01:59:17.172Z,7.62
2018-07-17T01:59:29.560Z,7.62
2018-07-17T01:59:41.976Z,7.62
2018-07-17T01:59:54.369Z,7.62
2018-07-17T02:00:06.843Z,7.62
2018-07-17T02:00:19.511Z,7.62
2018-07-17T02:00:31.929Z,7.62
2018-07-17T02:00:44.350Z,7.62
2018-07-17T02:00:56.830Z,7.62
2018-07-17T02:01:09.255Z,7.62
2018-07-17T02:01:21.705Z,7.62
2018-07-17T02:01:34.170Z,7.62
2018-07-17T02:01:46.594Z,7.62
2018-07-17T02:01:59.077Z,7.62
2018-07-17T02:02:11.570Z,7.62
2018-07-17T02:02:24.011Z,7.62
2018-07-17T02:02:36.480Z,7.62
2018-07-17T02:02:48.933Z,7.62
2018-07-17T02:03:01.377Z,7.62
2018-07-17T02:03:13.776Z,7.62
2018-07-17T02:03:26.188Z,7.62
2018-07-17T02:03:38.628Z,7.62
2018-07-17T02:03:51.022Z,7.62
2018-07-17T02:04:03.492Z,7.62
2018-07-17T02:04:15.902Z,7.62
2018-07-17T02:04:28.374Z,7.62
2018-07-17T02:04:40.821Z,7.62
2018-07-17T02:04:53.981Z,7.62
2018-07-17T02:05:07.411Z,7.62
2018-07-17T02:05:19.811Z,7.62
2018-07-17T02:05:32.213Z,7.62
2018-07-17T02:05:44.629Z,10.31
2018-07-17T02:05:57.043Z,10.31
2018-07-17T02:06:09.464Z,10.31
2018-07-17T02:06:21.893Z,10.31
2018-07-17T02:06:34.364Z,10.31
2018-07-17T02:06:46.766Z,10.31
2018-07-17T02:06:59.217Z,10.31
2018-07-17T02:07:11.604Z,10.31
2018-07-17T02:07:24.123Z,10.31
2018-07-17T02:07:36.513Z,10.31
2018-07-17T02:07:49.031Z,10.31
2018-07-17T02:08:01.412Z,10.31
2018-07-17T02:08:13.809Z,10.31
2018-07-17T02:08:26.188Z,10.31
2018-07-17T02:08:38.586Z,10.31
2018-07-17T02:08:50.977Z,10.31
2018-07-17T02:09:03.408Z,10.31
2018-07-17T02:09:15.816Z,10.31
2018-07-17T02:09:28.238Z,10.31
2018-07-17T02:09:40.670Z,10.31
2018-07-17T02:09:53.066Z,10.31
2018-07-17T02:10:05.463Z,10.31
2018-07-17T02:10:17.883Z,10.31
2018-07-17T02:10:30.301Z,10.31
2018-07-17T02:10:42.697Z,10.31
2018-07-17T02:10:55.111Z,10.31
2018-07-17T02:11:07.518Z,10.31
2018-07-17T02:11:19.907Z,10.31
2018-07-17T02:11:32.297Z,10.31
2018-07-17T02:11:44.758Z,10.31
2018-07-17T02:11:57.177Z,10.31
2018-07-17T02:12:09.680Z,10.31
2018-07-17T02:12:22.280Z,10.31
2018-07-17T02:12:34.674Z,10.31
2018-07-17T02:12:47.052Z,10.31
2018-07-17T02:12:59.539Z,10.31
2018-07-17T02:13:11.948Z,10.31
2018-07-17T02:13:24.396Z,10.31
2018-07-17T02:13:36.809Z,10.31
2018-07-17T02:13:49.198Z,10.31
2018-07-17T02:14:01.624Z,10.31
2018-07-17T02:14:14.040Z,10.31
2018-07-17T02:14:26.439Z,10.31
2018-07-17T02:14:38.846Z,10.31
2018-07-17T02:14:51.247Z,10.31
2018-07-17T02:15:03.660Z,10.31
2018-07-17T02:15:16.061Z,10.31
2018-07-17T02:15:28.465Z,10.31
2018-07-17T02:15:40.886Z,10.31
2018-07-17T02:15:53.285Z,8.19
2018-07-17T02:16:05.680Z,8.19
2018-07-17T02:16:18.093Z,8.19
2018-07-17T02:16:30.491Z,8.19
2018-07-17T02:16:42.888Z,8.19
2018-07-17T02:16:55.308Z,8.19
2018-07-17T02:17:07.724Z,8.19
2018-07-17T02:17:20.138Z,8.19
2018-07-17T02:17:32.553Z,8.19
2018-07-17T02:17:44.952Z,8.19
2018-07-17T02:17:57.370Z,8.19
2018-07-17T02:18:09.818Z,8.19
2018-07-17T02:18:22.244Z,8.19
2018-07-17T02:18:34.684Z,8.19
2018-07-17T02:18:47.764Z,8.19
2018-07-17T02:19:00.851Z,8.19
2018-07-17T02:19:13.251Z,8.19
2018-07-17T02:19:25.670Z,8.19
2018-07-17T02:19:38.087Z,8.19
2018-07-17T02:19:50.526Z,8.19
2018-07-17T02:20:02.977Z,8.19
2018-07-17T02:20:15.386Z,8.19
2018-07-17T02:20:27.778Z,8.19
2018-07-17T02:20:40.293Z,8.19
2018-07-17T02:20:52.702Z,8.19
2018-07-17T02:21:05.112Z,8.19
2018-07-17T02:21:17.500Z,8.19
2018-07-17T02:21:29.896Z,8.19
2018-07-17T02:21:42.319Z,8.19
2018-07-17T02:21:54.743Z,8.19
2018-07-17T02:22:07.145Z,8.19
2018-07-17T02:22:19.547Z,8.19
2018-07-17T02:22:31.985Z,8.19
2018-07-17T02:22:44.378Z,8.19
2018-07-17T02:22:56.822Z,8.19
2018-07-17T02:23:09.232Z,8.19
2018-07-17T02:23:21.619Z,8.19
2018-07-17T02:23:34.016Z,8.19
2018-07-17T02:23:46.400Z,8.19
2018-07-17T02:23:58.799Z,8.19
2018-07-17T02:24:11.194Z,8.19
2018-07-17T02:24:23.600Z,8.19
2018-07-17T02:24:35.988Z,8.19
2018-07-17T02:24:48.389Z,8.19
2018-07-17T02:25:00.814Z,8.19
2018-07-17T02:25:13.222Z,8.19
2018-07-17T02:25:25.634Z,8.19
2018-07-17T02:25:38.156Z,8.19
2018-07-17T02:25:50.703Z,9.5
2018-07-17T02:26:03.259Z,9.5
2018-07-17T02:26:15.689Z,9.5
2018-07-17T02:26:28.093Z,9.5
2018-07-17T02:26:40.492Z,9.5
2018-07-17T02:26:52.932Z,9.5
2018-07-17T02:27:05.406Z,9.5
2018-07-17T02:27:17.862Z,9.5
2018-07-17T02:27:30.260Z,9.5
2018-07-17T02:27:42.662Z,9.5
2018-07-17T02:27:55.067Z,9.5
2018-07-17T02:28:07.496Z,9.5
2018-07-17T02:28:19.891Z,9.5
2018-07-17T02:28:32.304Z,9.5
2018-07-17T02:28:44.699Z,9.5
2018-07-17T02:28:57.090Z,9.5
2018-07-17T02:29:09.500Z,9.5
2018-07-17T02:29:21.912Z,9.5
2018-07-17T02:29:34.310Z,9.5
2018-07-17T02:29:46.886Z,9.5
2018-07-17T02:29:59.288Z,9.5
2018-07-17T02:30:11.726Z,9.5
2018-07-17T02:30:24.241Z,9.5
2018-07-17T02:30:36.665Z,9.5
2018-07-17T02:30:49.125Z,9.5
2018-07-17T02:31:01.551Z,9.5
2018-07-17T02:31:14.231Z,9.5
2018-07-17T02:31:26.727Z,9.5
2018-07-17T02:31:39.179Z,9.5
2018-07-17T02:31:51.621Z,9.5
2018-07-17T02:32:04.059Z,9.5
2018-07-17T02:32:16.606Z,9.5
2018-07-17T02:32:29.058Z,9.5
2018-07-17T02:32:41.485Z,9.5
2018-07-17T02:32:53.985Z,9.5
2018-07-17T02:33:06.406Z,9.5
2018-07-17T02:33:18.837Z,9.5
2018-07-17T02:33:31.257Z,9.5
2018-07-17T02:33:43.693Z,9.5
2018-07-17T02:33:56.211Z,9.5
2018-07-17T02:34:08.637Z,9.5
2018-07-17T02:34:21.113Z,9.5
2018-07-17T02:34:33.526Z,9.5
2018-07-17T02:34:45.964Z,9.5
2018-07-17T02:34:58.427Z,9.5
2018-07-17T02:35:10.837Z,9.5
2018-07-17T02:35:23.263Z,9.5
2018-07-17T02:35:35.693Z,9.5
2018-07-17T02:35:48.123Z,8.52
2018-07-17T02:36:00.535Z,8.52
2018-07-17T02:36:12.975Z,8.52
2018-07-17T02:36:25.400Z,8.52
2018-07-17T02:36:37.878Z,8.52
2018-07-17T02:36:50.303Z,8.52
2018-07-17T02:37:02.720Z,8.52
2018-07-17T02:37:15.154Z,8.52
2018-07-17T02:37:27.594Z,8.52
2018-07-17T02:37:40.034Z,8.52
2018-07-17T02:37:52.486Z,8.52
2018-07-17T02:38:04.909Z,8.52
2018-07-17T02:38:17.364Z,8.52
2018-07-17T02:38:29.782Z,8.52
2018-07-17T02:38:42.241Z,8.52
2018-07-17T02:38:54.686Z,8.52
2018-07-17T02:39:07.141Z,8.52
2018-07-17T02:39:19.574Z,8.52
2018-07-17T02:39:32.048Z,8.52
2018-07-17T02:39:44.486Z,8.52
2018-07-17T02:39:56.921Z,8.52
2018-07-17T02:40:09.355Z,8.52
2018-07-17T02:40:21.804Z,8.52
2018-07-17T02:40:34.224Z,8.52
2018-07-17T02:40:46.643Z,8.52
2018-07-17T02:40:59.103Z,8.52
2018-07-17T02:41:11.554Z,8.52
2018-07-17T02:41:23.975Z,8.52
2018-07-17T02:41:36.496Z,8.52
2018-07-17T02:41:48.935Z,8.52
2018-07-17T02:42:01.374Z,8.52
2018-07-17T02:42:14.151Z,8.52
2018-07-17T02:42:27.625Z,8.52
2018-07-17T02:42:40.758Z,8.52
2018-07-17T02:42:53.209Z,8.52
2018-07-17T02:43:05.762Z,8.52
2018-07-17T02:43:18.203Z,8.52
2018-07-17T02:43:30.659Z,8.52
2018-07-17T02:43:43.076Z,8.52
2018-07-17T02:43:55.479Z,8.52
2018-07-17T02:44:07.902Z,8.52
2018-07-17T02:44:20.344Z,8.52
2018-07-17T02:44:32.845Z,8.52
2018-07-17T02:44:45.298Z,8.52
2018-07-17T02:44:57.739Z,8.52
2018-07-17T02:45:10.212Z,8.52
2018-07-17T02:45:22.628Z,8.52
2018-07-17T02:45:35.104Z,8.52
2018-07-17T02:45:47.534Z,8.65
2018-07-17T02:45:59.982Z,8.65
2018-07-17T02:46:12.495Z,8.65
2018-07-17T02:46:24.915Z,8.65